recreation.gov alexa rank chart, recreation.gov alexa rank daily changes

recreation.gov alexa rank chart, recreation.gov alexa rank daily changes

recreation.gov
Actual rank:
31 569

RANK HISTORY

Date Rank Diff
2018/11/18 31 569 -8 288
2018/11/17 39 857 -10 932
2018/11/16 50 789 +20 293
2018/11/15 30 496 -5 276
2018/11/14 35 772 +10 243
2018/11/13 25 529 +1 949
2018/11/12 23 580 -73 235
2018/11/11 96 815 +72 080
2018/11/10 24 735 -1 410
2018/11/09 26 145 -6 086
2018/11/08 32 231 +5 240
2018/11/07 26 991 -5 726
2018/11/06 32 717 -12 085
2018/11/05 44 802 -4 295
2018/11/04 49 097 +16 320
2018/11/03 32 777 +6 752
2018/11/02 26 025 -11 942
2018/11/01 37 967 +12 145
2018/10/31 25 822 +2 628
2018/10/30 23 194 -9 225
2018/10/29 32 419 +2 321
2018/10/28 30 098 -8 112
2018/10/27 38 210 +16 770
2018/10/26 21 440 -5 782
2018/10/25 27 222 +3 264
2018/10/24 23 958 -125 752
2018/10/23 149 710 +121 081
2018/10/22 28 629 +4 879
2018/10/21 23 750 +2 734
2018/10/20 21 016 -8 931
2018/10/19 29 947 +5 394
2018/10/18 24 553 +870
2018/10/17 23 683 -920
2018/10/16 24 603 +4 654
2018/10/15 19 949 -20 292
2018/10/14 40 241 +23 510
2018/10/13 16 731 -16 170
2018/10/12 32 901 -11 124
2018/10/11 44 025 +20 524
2018/10/10 23 501 +868
2018/10/09 22 633 -6 549
2018/10/08 29 182 +1 337
2018/10/07 27 845 -15 710
2018/10/06 43 555 +18 539
2018/10/05 25 016 +4 395
2018/10/04 20 621 +969
2018/10/03 19 652 -2 032
2018/10/02 21 684 +5 111
2018/10/01 16 573 -1 789
2018/09/30 18 362 -358
2018/09/29 18 720 +290
2018/09/28 18 430 +4 671
2018/09/27 13 759 -3 474
2018/09/26 17 233 -407
2018/09/25 17 640 +824
2018/09/24 16 816 +2 929
2018/09/23 13 887 -484
2018/09/22 14 371 -1 495
2018/09/21 15 866 +2 735
2018/09/20 13 131 -22 677
2018/09/19 35 808

WIDGET FOR YOUR SITE

DOMAINS WITH THE NEAREST RANK

Domain Rank
caradvice.com.au 31 564
josbank.com 31 565
siu.edu 31 566
filmey.tv 31 567
lampsplus.com 31 568
recreation.gov 31 569
macstoreonline.com.mx 31 570
sol.org.tr 31 571
raagsong.net 31 572
springahead.com 31 573
bpm-power.com 31 574

DOMAINS WITH THE NEAREST RANK BY TLD .gov

Domain Rank
ilsos.gov 30 024
sba.gov 30 664
la.gov 31 234
louisiana.gov 31 308
peacecorps.gov 31 498
recreation.gov 31 569
ahrq.gov 31 731
usitc.gov 32 142
ilga.gov 32 298
vermont.gov 33 260
maine.gov 33 263